Time;durP1;ratioP1;P1;durP2;ratioP2;P2;SDS_P1;SDS_P2;PMS_P1;PMS_P2;Temp;Humidity;BMP_temperature;BMP_pressure;BME280_temperature;BME280_humidity;BME280_pressure;Samples;Min_cycle;Max_cycle;Signal;HPM_P1;HPM_P2
2023/04/12 00:01:02;;;;;;;1.47;0.93;;;21.40;59.80;;;;;;5097249;28;20467;-88
2023/04/12 00:03:29;;;;;;;1.53;1.07;;;21.40;59.80;;;;;;5097090;28;20932;-88
2023/04/12 00:05:56;;;;;;;1.10;0.87;;;21.40;59.70;;;;;;5096987;28;20916;-88
2023/04/12 00:08:25;;;;;;;1.37;1.00;;;21.40;59.70;;;;;;5097084;28;20922;-88
2023/04/12 00:10:53;;;;;;;1.10;0.90;;;21.40;59.80;;;;;;5097256;28;20896;-88
2023/04/12 00:13:20;;;;;;;1.20;1.00;;;21.40;59.70;;;;;;5097302;28;20435;-88
2023/04/12 00:15:46;;;;;;;1.43;1.00;;;21.40;59.70;;;;;;5096899;28;20443;-88
2023/04/12 00:18:13;;;;;;;1.10;0.90;;;21.40;59.80;;;;;;5096850;28;20446;-89
2023/04/12 00:20:40;;;;;;;1.73;0.80;;;21.40;59.70;;;;;;5098742;28;20438;-89
2023/04/12 00:23:08;;;;;;;1.50;1.03;;;21.40;59.70;;;;;;5096958;28;20443;-88
2023/04/12 00:25:35;;;;;;;1.77;1.07;;;21.40;59.70;;;;;;5096849;28;21003;-89
2023/04/12 00:28:03;;;;;;;1.30;1.07;;;21.40;59.80;;;;;;5097048;28;20438;-88
2023/04/12 00:30:30;;;;;;;1.70;1.00;;;21.40;59.80;;;;;;5096602;28;20856;-88
2023/04/12 00:32:57;;;;;;;1.60;1.00;;;21.40;59.70;;;;;;5096768;28;20527;-88
2023/04/12 00:35:24;;;;;;;2.80;1.00;;;21.40;59.70;;;;;;5096875;28;20439;-89
2023/04/12 00:37:51;;;;;;;1.13;0.90;;;21.40;59.80;;;;;;5096491;28;21003;-89
2023/04/12 00:40:17;;;;;;;2.10;1.17;;;21.50;60.00;;;;;;5099667;28;20439;-88
2023/04/12 00:42:45;;;;;;;1.23;1.00;;;21.40;59.80;;;;;;5096550;28;20518;-88
2023/04/12 00:45:14;;;;;;;1.40;1.00;;;21.40;59.80;;;;;;5096481;28;20445;-89
2023/04/12 00:47:42;;;;;;;1.73;1.00;;;21.40;59.80;;;;;;5096341;28;20437;-88
2023/04/12 00:50:11;;;;;;;1.40;0.80;;;21.40;59.80;;;;;;5099407;28;20488;-87
2023/04/12 00:52:38;;;;;;;1.17;0.90;;;21.40;59.80;;;;;;5095609;28;20449;-88
2023/04/12 00:55:07;;;;;;;1.60;1.00;;;21.30;59.80;;;;;;5096401;28;20441;-88
2023/04/12 00:57:36;;;;;;;1.10;0.93;;;21.30;59.80;;;;;;5098731;28;20440;-87
2023/04/12 01:00:04;;;;;;;1.53;0.90;;;21.30;59.70;;;;;;5096385;28;20843;-87
2023/04/12 01:02:33;;;;;;;2.47;1.13;;;21.30;59.70;;;;;;5096265;28;20456;-87
2023/04/12 01:05:00;;;;;;;1.07;0.80;;;21.30;59.70;;;;;;5103730;28;20436;-86
2023/04/12 01:07:37;;;;;;;1.50;1.00;;;21.30;59.80;;;;;;5116125;28;20466;-88
2023/04/12 01:10:13;;;;;;;1.00;0.80;;;21.30;59.80;;;;;;5102570;28;20470;-87
2023/04/12 01:15:30;;;;;;;1.40;1.00;;;21.30;59.80;;;;;;5098329;28;20459;-88
2023/04/12 01:18:02;;;;;;;2.63;1.10;;;21.30;59.80;;;;;;5095671;28;20945;-88
2023/04/12 01:20:34;;;;;;;1.37;1.03;;;21.40;59.80;;;;;;5095794;28;20443;-87
2023/04/12 01:23:27;;;;;;;1.10;0.93;;;21.30;59.90;;;;;;5095683;28;20436;-87
2023/04/12 01:28:54;;;;;;;2.90;1.40;;;21.30;59.90;;;;;;5095689;28;20779;-88
2023/04/12 01:31:24;;;;;;;1.10;0.80;;;21.30;59.90;;;;;;5094968;28;20495;-88
2023/04/12 01:33:54;;;;;;;1.20;0.90;;;21.30;59.90;;;;;;5095266;28;20442;-88
2023/04/12 01:36:23;;;;;;;1.40;0.90;;;21.40;59.90;;;;;;5095221;28;20444;-88
2023/04/12 01:38:50;;;;;;;1.27;0.80;;;21.30;59.90;;;;;;5099881;28;20445;-88
2023/04/12 01:41:17;;;;;;;2.30;1.13;;;21.30;59.90;;;;;;5095523;28;21034;-87
2023/04/12 01:43:45;;;;;;;1.10;0.90;;;21.40;59.90;;;;;;5095216;28;20428;-88
2023/04/12 01:46:16;;;;;;;1.30;1.00;;;21.30;59.80;;;;;;5095600;28;20442;-87
2023/04/12 01:48:49;;;;;;;1.70;0.83;;;21.30;59.90;;;;;;5095330;28;20472;-87
2023/04/12 01:51:26;;;;;;;1.20;1.00;;;21.30;59.90;;;;;;5095034;28;20540;-87
2023/04/12 01:53:57;;;;;;;1.40;0.80;;;21.30;59.90;;;;;;5098562;28;20530;-87
2023/04/12 01:56:26;;;;;;;1.10;0.93;;;21.30;59.90;;;;;;5095003;28;20443;-87
2023/04/12 01:58:56;;;;;;;2.17;0.90;;;21.30;59.90;;;;;;5094775;28;20948;-88
2023/04/12 02:01:27;;;;;;;1.93;0.80;;;21.30;59.90;;;;;;5099069;28;20969;-87
2023/04/12 02:03:57;;;;;;;1.20;1.00;;;21.30;59.90;;;;;;5094908;28;20504;-88
2023/04/12 02:06:26;;;;;;;1.43;0.97;;;21.20;59.80;;;;;;5094974;28;20436;-87
2023/04/12 02:08:58;;;;;;;2.13;1.00;;;21.20;60.60;;;;;;5094869;28;20495;-88
2023/04/12 02:11:24;;;;;;;1.47;0.90;;;21.20;59.80;;;;;;5094844;28;20487;-87
2023/04/12 02:13:51;;;;;;;1.40;1.07;;;21.20;59.80;;;;;;5094661;28;20926;-87
2023/04/12 02:16:19;;;;;;;1.30;1.03;;;21.20;60.60;;;;;;5097073;28;20522;-87
2023/04/12 02:18:47;;;;;;;1.33;0.90;;;21.20;60.60;;;;;;5094735;28;20444;-87
2023/04/12 02:21:14;;;;;;;1.40;1.10;;;21.20;59.90;;;;;;5094741;28;20436;-87
2023/04/12 02:23:42;;;;;;;1.43;1.00;;;21.20;59.90;;;;;;5094799;28;20444;-87
2023/04/12 02:26:09;;;;;;;1.97;1.03;;;21.20;59.80;;;;;;5094673;28;20444;-87
2023/04/12 02:28:37;;;;;;;1.33;1.03;;;21.20;59.90;;;;;;5094812;28;20436;-87
2023/04/12 02:31:04;;;;;;;1.30;0.90;;;21.20;59.90;;;;;;5096896;28;20558;-87
2023/04/12 02:33:32;;;;;;;1.10;0.83;;;21.20;59.90;;;;;;5094605;28;20787;-88
2023/04/12 02:36:01;;;;;;;1.60;0.90;;;21.20;59.90;;;;;;5094437;28;20448;-87
2023/04/12 02:38:28;;;;;;;1.10;0.90;;;21.20;59.90;;;;;;5094383;28;20451;-89
2023/04/12 02:40:55;;;;;;;1.30;0.90;;;21.20;59.90;;;;;;5094397;28;20773;-88
2023/04/12 02:43:21;;;;;;;1.40;1.30;;;21.20;59.90;;;;;;5094121;28;20891;-87
2023/04/12 02:45:48;;;;;;;1.20;0.93;;;21.20;59.90;;;;;;5094386;28;20788;-87
2023/04/12 02:48:15;;;;;;;2.00;1.00;;;21.20;59.90;;;;;;5094411;28;20444;-88
2023/04/12 02:50:42;;;;;;;1.70;1.10;;;21.20;59.90;;;;;;5094095;28;20993;-88
2023/04/12 02:53:10;;;;;;;2.30;0.90;;;21.30;60.10;;;;;;5116411;28;20446;-87
2023/04/12 02:55:39;;;;;;;1.20;0.90;;;21.20;60.00;;;;;;5119107;28;20419;-88
2023/04/12 02:58:06;;;;;;;1.10;0.80;;;21.20;60.00;;;;;;5119243;28;20468;-90
2023/04/12 03:00:32;;;;;;;1.10;0.90;;;21.20;60.00;;;;;;5101862;28;20432;-88
2023/04/12 03:03:00;;;;;;;1.07;0.80;;;21.20;60.00;;;;;;5095599;28;20432;-88
2023/04/12 03:05:27;;;;;;;1.40;0.93;;;21.20;60.00;;;;;;5094787;28;20468;-87
2023/04/12 03:07:54;;;;;;;1.40;0.90;;;21.30;60.10;;;;;;5093929;28;20428;-88
2023/04/12 03:10:22;;;;;;;1.80;1.13;;;21.10;60.00;;;;;;5093775;28;20544;-87
2023/04/12 03:12:49;;;;;;;1.40;0.90;;;21.20;60.10;;;;;;5093907;28;20437;-87
2023/04/12 03:15:16;;;;;;;1.23;0.90;;;21.10;60.00;;;;;;5093458;28;20435;-88
2023/04/12 03:17:43;;;;;;;1.90;0.90;;;21.10;60.80;;;;;;5094104;28;20922;-88
2023/04/12 03:20:10;;;;;;;1.10;0.80;;;21.10;60.00;;;;;;5093776;28;20494;-88
2023/04/12 03:22:42;;;;;;;1.00;0.80;;;21.10;60.00;;;;;;5095333;28;20443;-88
2023/04/12 03:25:11;;;;;;;1.20;0.80;;;21.10;60.00;;;;;;5093747;28;20443;-88
2023/04/12 03:27:39;;;;;;;1.13;0.70;;;21.10;60.00;;;;;;5093872;28;20440;-88
2023/04/12 03:30:07;;;;;;;1.40;0.93;;;21.10;60.00;;;;;;5093405;28;20471;-88
2023/04/12 03:32:34;;;;;;;1.63;1.00;;;21.10;60.10;;;;;;5094048;28;20460;-88
2023/04/12 03:35:02;;;;;;;1.17;0.93;;;21.10;60.00;;;;;;5093850;28;20442;-88
2023/04/12 03:37:28;;;;;;;2.00;0.87;;;21.10;60.10;;;;;;5095769;28;20446;-87
2023/04/12 03:39:55;;;;;;;1.60;1.00;;;21.10;60.10;;;;;;5114246;28;20444;-87
2023/04/12 03:42:22;;;;;;;1.20;0.90;;;21.10;60.10;;;;;;5109333;28;20511;-87
2023/04/12 03:44:51;;;;;;;1.83;1.20;;;21.10;60.90;;;;;;5095796;28;20949;-88
2023/04/12 03:47:18;;;;;;;1.30;0.90;;;21.10;60.10;;;;;;5094919;28;20444;-89
2023/04/12 03:49:45;;;;;;;1.10;0.80;;;21.10;60.00;;;;;;5093903;28;20925;-88
2023/04/12 03:52:11;;;;;;;1.20;0.80;;;21.10;60.00;;;;;;5094740;28;20483;-87
2023/04/12 03:54:43;;;;;;;1.10;0.80;;;21.10;60.00;;;;;;5093774;28;20454;-87
2023/04/12 03:57:10;;;;;;;1.30;0.80;;;21.10;60.10;;;;;;5094259;28;20447;-88
2023/04/12 03:59:37;;;;;;;1.20;0.80;;;21.10;60.00;;;;;;5094466;28;20531;-88
2023/04/12 04:02:05;;;;;;;1.20;0.90;;;21.10;60.10;;;;;;5093782;28;20491;-88
2023/04/12 04:04:32;;;;;;;1.30;0.90;;;21.10;60.10;;;;;;5093917;28;20452;-88
2023/04/12 04:07:00;;;;;;;1.27;0.90;;;21.10;60.10;;;;;;5094009;28;20446;-88
2023/04/12 04:09:26;;;;;;;1.27;0.90;;;21.10;60.10;;;;;;5094646;28;20781;-88
2023/04/12 04:11:53;;;;;;;1.33;0.90;;;21.10;60.10;;;;;;5095075;28;20483;-88
2023/04/12 04:14:20;;;;;;;1.00;0.77;;;21.10;60.10;;;;;;5094220;28;20447;-88
2023/04/12 04:16:47;;;;;;;1.00;0.80;;;21.10;60.10;;;;;;5095153;28;20436;-88
2023/04/12 04:19:15;;;;;;;1.43;0.80;;;21.10;60.00;;;;;;5093858;28;20833;-88
2023/04/12 04:21:42;;;;;;;1.00;0.70;;;21.10;60.10;;;;;;5093976;28;20435;-88
2023/04/12 04:24:12;;;;;;;1.10;0.80;;;21.00;60.00;;;;;;5094460;28;20944;-88
2023/04/12 04:26:38;;;;;;;2.10;0.93;;;21.00;60.10;;;;;;5094723;28;20432;-88
2023/04/12 04:29:05;;;;;;;1.60;1.00;;;21.00;60.00;;;;;;5098080;28;20431;-88
2023/04/12 04:31:35;;;;;;;1.57;0.90;;;21.00;60.00;;;;;;5098311;28;20572;-88
2023/04/12 04:34:04;;;;;;;1.17;0.90;;;21.00;60.10;;;;;;5098581;28;20431;-88
2023/04/12 04:36:34;;;;;;;1.60;1.20;;;21.00;60.10;;;;;;5099976;28;20814;-88
2023/04/12 04:39:02;;;;;;;1.47;0.93;;;21.20;60.30;;;;;;5098303;28;20441;-87
2023/04/12 04:41:33;;;;;;;1.30;0.90;;;21.00;60.10;;;;;;5100131;28;20456;-87
2023/04/12 04:44:00;;;;;;;2.10;1.10;;;21.00;60.00;;;;;;5098662;28;20819;-88
2023/04/12 04:46:30;;;;;;;1.57;1.10;;;21.00;60.10;;;;;;5098020;28;20444;-87
2023/04/12 04:48:58;;;;;;;1.10;0.80;;;21.00;60.10;;;;;;5097438;28;20439;-87
2023/04/12 04:51:26;;;;;;;1.50;0.97;;;21.00;60.10;;;;;;5096177;28;20608;-87
2023/04/12 04:53:54;;;;;;;1.57;1.37;;;21.00;60.10;;;;;;5096294;28;20538;-87
2023/04/12 04:56:22;;;;;;;1.20;1.00;;;21.00;60.20;;;;;;5096388;28;20456;-87
2023/04/12 04:58:49;;;;;;;1.83;0.90;;;21.00;60.20;;;;;;5096495;28;20456;-87
2023/04/12 05:01:16;;;;;;;1.30;0.90;;;21.00;60.10;;;;;;5095927;28;20513;-87
2023/04/12 05:03:43;;;;;;;1.30;0.97;;;21.00;60.20;;;;;;5095522;28;20493;-86
2023/04/12 05:06:10;;;;;;;1.63;0.90;;;21.00;60.30;;;;;;5095525;28;20482;-88
2023/04/12 05:08:37;;;;;;;1.10;0.80;;;21.00;60.20;;;;;;5095890;28;20444;-87
2023/04/12 05:11:06;;;;;;;1.10;0.90;;;21.10;60.30;;;;;;5095616;28;20505;-87
2023/04/12 05:13:32;;;;;;;2.27;1.00;;;21.00;60.20;;;;;;5096042;28;20450;-88
2023/04/12 05:15:59;;;;;;;1.00;0.70;;;21.00;60.30;;;;;;5095693;28;20447;-87
2023/04/12 05:18:26;;;;;;;1.30;1.00;;;21.00;60.20;;;;;;5095811;28;20462;-87
2023/04/12 05:20:53;;;;;;;1.60;0.90;;;21.00;60.20;;;;;;5096338;28;20447;-88
2023/04/12 05:23:20;;;;;;;1.10;0.80;;;21.00;61.00;;;;;;5096458;28;20794;-87
2023/04/12 05:25:48;;;;;;;1.50;1.00;;;21.00;60.30;;;;;;5095374;28;20446;-87
2023/04/12 05:28:24;;;;;;;1.40;0.90;;;21.10;60.40;;;;;;5096472;28;20784;-86
2023/04/12 05:30:51;;;;;;;1.07;0.77;;;21.00;60.30;;;;;;5100893;28;20475;-87
2023/04/12 05:33:18;;;;;;;1.13;0.97;;;21.00;60.40;;;;;;5095692;28;20919;-87
2023/04/12 05:35:46;;;;;;;1.40;0.83;;;20.90;60.30;;;;;;5095398;28;20918;-87
2023/04/12 05:38:15;;;;;;;1.20;0.80;;;21.00;60.40;;;;;;5094822;28;20516;-87
2023/04/12 05:40:42;;;;;;;1.20;0.80;;;21.00;60.40;;;;;;5095210;28;20530;-88
2023/04/12 05:43:11;;;;;;;1.50;0.90;;;21.00;60.40;;;;;;5094069;28;20431;-88
2023/04/12 05:45:39;;;;;;;2.03;0.90;;;21.10;60.50;;;;;;5094488;28;20439;-88
2023/04/12 05:48:06;;;;;;;1.83;0.80;;;20.90;60.40;;;;;;5094361;28;20498;-88
2023/04/12 05:50:33;;;;;;;1.10;0.80;;;20.90;60.50;;;;;;5094483;28;20471;-87
2023/04/12 05:53:01;;;;;;;2.30;1.10;;;20.90;60.40;;;;;;5094000;28;20439;-87
2023/04/12 05:55:28;;;;;;;1.30;1.00;;;20.90;60.40;;;;;;5095040;28;20448;-89
2023/04/12 05:57:55;;;;;;;1.10;0.80;;;20.90;60.40;;;;;;5094850;28;20430;-89
2023/04/12 06:00:22;;;;;;;1.50;1.10;;;20.90;60.40;;;;;;5095444;28;20530;-90
2023/04/12 06:02:51;;;;;;;1.10;0.80;;;20.90;60.40;;;;;;5094777;28;20465;-88
2023/04/12 06:05:18;;;;;;;1.13;0.87;;;20.90;60.60;;;;;;5095374;28;20448;-87
2023/04/12 06:07:45;;;;;;;1.20;0.90;;;20.90;60.50;;;;;;5095062;28;20495;-88
2023/04/12 06:10:14;;;;;;;1.10;0.80;;;21.10;60.80;;;;;;5104016;28;20442;-88
2023/04/12 06:12:41;;;;;;;1.27;0.93;;;21.10;60.90;;;;;;5117245;28;20479;-88
2023/04/12 06:15:08;;;;;;;1.10;0.70;;;21.10;60.50;;;;;;5100878;28;20440;-88
2023/04/12 06:17:36;;;;;;;3.03;0.90;;;21.00;60.70;;;;;;5094290;28;20451;-88
2023/04/12 06:20:06;;;;;;;1.10;0.70;;;21.00;60.90;;;;;;5094110;28;20448;-88
2023/04/12 06:22:33;;;;;;;1.67;0.90;;;21.00;61.10;;;;;;5094371;28;20505;-88
2023/04/12 06:25:00;;;;;;;1.70;1.00;;;21.00;61.20;;;;;;5094497;28;20458;-88
2023/04/12 06:27:26;;;;;;;1.10;0.80;;;21.00;61.30;;;;;;5094487;28;20455;-88
2023/04/12 06:29:53;;;;;;;1.10;0.90;;;21.00;61.40;;;;;;5094288;28;20439;-90
2023/04/12 06:32:20;;;;;;;1.50;0.87;;;21.00;61.40;;;;;;5094022;28;20488;-89
2023/04/12 06:34:47;;;;;;;1.00;0.80;;;21.00;61.50;;;;;;5094149;28;20483;-89
2023/04/12 06:37:15;;;;;;;1.30;0.73;;;21.00;61.50;;;;;;5094610;28;20482;-88
2023/04/12 06:39:42;;;;;;;1.10;0.87;;;21.00;61.70;;;;;;5094521;28;20450;-88
2023/04/12 06:42:09;;;;;;;1.30;0.93;;;20.90;61.50;;;;;;5094399;28;20842;-86
2023/04/12 06:44:36;;;;;;;1.27;0.80;;;21.00;61.70;;;;;;5094126;28;20436;-87
2023/04/12 06:47:02;;;;;;;1.27;0.90;;;21.00;61.80;;;;;;5094188;28;20443;-89
2023/04/12 06:49:29;;;;;;;2.50;0.90;;;21.00;61.90;;;;;;5093557;28;20450;-88
2023/04/12 06:51:56;;;;;;;1.57;0.70;;;21.10;61.80;;;;;;5093974;28;20527;-89
2023/04/12 06:54:26;;;;;;;1.83;0.97;;;21.00;62.00;;;;;;5093726;28;20542;-88
2023/04/12 06:56:53;;;;;;;1.40;1.00;;;20.80;61.90;;;;;;5094071;28;20443;-87
2023/04/12 06:59:20;;;;;;;1.10;0.80;;;21.00;62.00;;;;;;5093979;28;20454;-88
2023/04/12 07:01:46;;;;;;;4.13;1.10;;;21.00;62.90;;;;;;5093737;28;20480;-88
2023/04/12 07:04:13;;;;;;;1.30;1.00;;;21.00;62.20;;;;;;5094023;28;20504;-88
2023/04/12 07:06:41;;;;;;;2.97;0.77;;;21.00;62.30;;;;;;5093888;28;20442;-88
2023/04/12 07:09:08;;;;;;;1.10;0.90;;;21.00;62.20;;;;;;5093911;28;20534;-88
2023/04/12 07:11:36;;;;;;;1.10;0.80;;;21.00;62.20;;;;;;5093632;28;20568;-87
2023/04/12 07:14:03;;;;;;;2.87;0.97;;;21.20;62.50;;;;;;5093855;28;20442;-87
2023/04/12 07:16:31;;;;;;;1.40;0.90;;;21.00;62.40;;;;;;5090401;28;20534;-87
2023/04/12 07:18:58;;;;;;;1.30;0.80;;;21.10;62.40;;;;;;5073256;28;20448;-88
2023/04/12 07:21:26;;;;;;;1.20;0.77;;;21.00;62.30;;;;;;5073506;28;20801;-88
2023/04/12 07:23:53;;;;;;;1.20;0.90;;;21.00;62.40;;;;;;5074294;28;20445;-86
2023/04/12 07:26:20;;;;;;;1.00;0.80;;;21.00;62.50;;;;;;5074260;28;21412;-87
2023/04/12 07:28:48;;;;;;;1.20;0.80;;;21.10;62.70;;;;;;5073615;28;20444;-87
2023/04/12 07:31:15;;;;;;;1.00;0.70;;;21.00;62.40;;;;;;5072893;28;20456;-89
2023/04/12 07:33:42;;;;;;;2.07;0.93;;;21.00;62.50;;;;;;5073544;28;20436;-88
2023/04/12 07:36:09;;;;;;;1.20;0.70;;;21.00;62.50;;;;;;5074064;28;20954;-88
2023/04/12 07:38:36;;;;;;;5.13;0.80;;;21.00;62.40;;;;;;5073774;28;20449;-87
2023/04/12 07:41:03;;;;;;;1.10;0.70;;;21.20;62.70;;;;;;5073436;28;20444;-87
2023/04/12 07:43:30;;;;;;;1.20;0.90;;;21.00;62.40;;;;;;5080185;28;20444;-87
2023/04/12 07:45:58;;;;;;;3.77;0.70;;;21.00;62.40;;;;;;5090163;28;20436;-87
2023/04/12 07:48:25;;;;;;;1.47;0.90;;;21.00;62.40;;;;;;5091494;28;20436;-87
2023/04/12 07:50:52;;;;;;;1.53;0.90;;;21.00;62.10;;;;;;5086799;28;20549;-84
2023/04/12 07:53:20;;;;;;;1.40;0.80;;;21.20;62.30;;;;;;5072984;28;20495;-84
2023/04/12 07:55:47;;;;;;;1.10;0.80;;;21.00;60.60;;;;;;5073769;28;20446;-89
2023/04/12 07:58:14;;;;;;;1.10;0.80;;;21.00;60.40;;;;;;5073580;28;20448;-87
2023/04/12 08:00:41;;;;;;;1.20;1.03;;;21.00;60.40;;;;;;5073327;28;20471;-86
2023/04/12 08:03:11;;;;;;;1.83;0.90;;;21.00;61.30;;;;;;5077281;28;20452;-90
2023/04/12 08:05:38;;;;;;;2.77;0.80;;;21.00;61.40;;;;;;5077139;28;20531;-88
2023/04/12 08:08:06;;;;;;;1.00;0.70;;;21.20;62.10;;;;;;5076495;28;20470;-87
